createdAt,value
2022-09-05T00:00:32.120Z,87
2022-09-05T00:01:32.116Z,87
2022-09-05T00:02:32.248Z,88
2022-09-05T00:03:32.261Z,88
2022-09-05T00:04:32.199Z,88
2022-09-05T00:05:32.119Z,88
2022-09-05T00:06:32.130Z,88
2022-09-05T00:07:57.875Z,88
2022-09-05T00:08:32.166Z,88
2022-09-05T00:09:32.138Z,88
2022-09-05T00:10:37.512Z,88
2022-09-05T00:11:43.137Z,89
2022-09-05T00:12:32.089Z,88
2022-09-05T00:13:32.379Z,88
2022-09-05T00:15:15.372Z,89
2022-09-05T00:15:31.945Z,89
2022-09-05T00:16:32.233Z,89
2022-09-05T00:18:35.350Z,89
2022-09-05T00:23:19.978Z,89
2022-09-05T00:24:19.902Z,88
2022-09-05T00:24:20.307Z,89
2022-09-05T00:24:28.844Z,89
2022-09-05T00:24:31.031Z,88
2022-09-05T00:24:31.895Z,88
2022-09-05T00:24:42.754Z,89
2022-09-05T00:25:33.057Z,89
2022-09-05T00:26:32.142Z,89
2022-09-05T00:27:31.946Z,89
2022-09-05T00:28:32.114Z,89
2022-09-05T00:29:46.499Z,89
2022-09-05T00:31:06.225Z,89
2022-09-05T00:31:54.978Z,89
2022-09-05T00:32:32.609Z,89
2022-09-05T00:33:32.408Z,89
2022-09-05T00:34:41.129Z,89
2022-09-05T00:35:31.963Z,89
2022-09-05T00:36:32.116Z,89
2022-09-05T00:37:32.177Z,89
2022-09-05T00:38:37.103Z,89
2022-09-05T00:39:31.908Z,89
2022-09-05T00:40:32.160Z,89
2022-09-05T00:41:34.367Z,90
2022-09-05T00:42:32.140Z,90
2022-09-05T00:43:31.917Z,90
2022-09-05T00:44:32.132Z,90
2022-09-05T00:45:32.138Z,90
2022-09-05T00:46:32.283Z,90
2022-09-05T00:47:31.848Z,90
2022-09-05T00:48:32.144Z,90
2022-09-05T00:49:32.117Z,90
2022-09-05T00:50:32.115Z,90
2022-09-05T00:51:34.541Z,90
2022-09-05T00:52:32.088Z,90
2022-09-05T00:53:32.119Z,91
2022-09-05T00:54:41.292Z,91
2022-09-05T00:55:31.845Z,91
2022-09-05T00:56:32.143Z,91
2022-09-05T00:57:32.121Z,91
2022-09-05T00:58:34.105Z,91
2022-09-05T00:59:31.850Z,91
2022-09-05T01:00:32.134Z,91
2022-09-05T01:01:32.328Z,91
2022-09-05T01:02:34.914Z,91
2022-09-05T01:03:31.835Z,91
2022-09-05T01:04:32.158Z,91
2022-09-05T01:05:32.138Z,91
2022-09-05T01:06:32.105Z,91
2022-09-05T01:07:31.867Z,91
2022-09-05T01:08:32.129Z,91
2022-09-05T01:09:32.108Z,91
2022-09-05T01:10:32.089Z,91
2022-09-05T01:11:31.888Z,91
2022-09-05T01:12:32.106Z,92
2022-09-05T01:13:32.176Z,92
2022-09-05T01:14:32.099Z,92
2022-09-05T01:15:32.666Z,92
2022-09-05T01:16:32.122Z,92
2022-09-05T01:17:32.180Z,92
2022-09-05T01:18:32.107Z,92
2022-09-05T01:19:31.844Z,92
2022-09-05T01:20:34.402Z,92
2022-09-05T01:21:32.142Z,92
2022-09-05T01:22:32.122Z,92
2022-09-05T01:23:31.853Z,91
2022-09-05T01:24:32.125Z,92
2022-09-05T01:25:32.206Z,91
2022-09-05T01:26:32.086Z,92
2022-09-05T01:27:36.592Z,92
2022-09-05T01:29:18.386Z,91
2022-09-05T01:29:32.169Z,91
2022-09-05T01:30:33.236Z,91
2022-09-05T01:31:31.879Z,92
2022-09-05T01:32:32.136Z,91
2022-09-05T01:33:32.293Z,91
2022-09-05T01:34:32.348Z,91
2022-09-05T01:35:31.806Z,91
2022-09-05T01:36:32.115Z,92
2022-09-05T01:37:33.484Z,92
2022-09-05T01:38:32.103Z,92
2022-09-05T01:40:14.209Z,92
2022-09-05T01:40:32.349Z,92
2022-09-05T01:41:32.325Z,92
2022-09-05T01:42:32.201Z,91
2022-09-05T01:43:32.010Z,92
2022-09-05T01:44:32.228Z,91
2022-09-05T01:45:39.250Z,91
2022-09-05T01:46:32.347Z,91
2022-09-05T01:47:31.984Z,91
2022-09-05T01:48:32.276Z,91
2022-09-05T01:49:32.122Z,91
2022-09-05T01:50:32.117Z,91
2022-09-05T01:51:31.891Z,91
2022-09-05T01:52:32.141Z,91
2022-09-05T01:53:32.098Z,91
2022-09-05T01:54:32.085Z,91
2022-09-05T01:55:31.820Z,91
2022-09-05T01:56:32.129Z,91
2022-09-05T01:57:32.128Z,91
2022-09-05T01:58:32.117Z,91
2022-09-05T01:59:31.783Z,91
2022-09-05T02:00:32.118Z,91
2022-09-05T02:01:33.237Z,91
2022-09-05T02:02:32.218Z,91
2022-09-05T02:03:31.740Z,91
2022-09-05T02:04:32.156Z,91
2022-09-05T02:05:48.648Z,91
2022-09-05T02:06:32.175Z,91
2022-09-05T02:07:31.897Z,91
2022-09-05T02:08:32.101Z,91
2022-09-05T02:09:32.106Z,91
2022-09-05T02:10:32.385Z,91
2022-09-05T02:11:35.353Z,91
2022-09-05T02:12:32.123Z,91
2022-09-05T02:13:32.116Z,91
2022-09-05T02:14:34.110Z,91
2022-09-05T02:15:31.833Z,91
2022-09-05T02:16:32.122Z,91
2022-09-05T02:17:48.143Z,91
2022-09-05T02:18:32.183Z,91
2022-09-05T02:19:31.770Z,91
2022-09-05T02:20:32.134Z,91
2022-09-05T02:21:32.109Z,91
2022-09-05T02:22:32.108Z,91
2022-09-05T02:23:40.989Z,91
2022-09-05T02:24:32.106Z,91
2022-09-05T02:26:02.426Z,90
2022-09-05T02:26:32.170Z,90
2022-09-05T02:28:03.671Z,90
2022-09-05T02:28:32.161Z,90
2022-09-05T02:29:32.131Z,89
2022-09-05T02:30:32.113Z,89
2022-09-05T02:31:31.741Z,89
2022-09-05T02:32:32.131Z,89
2022-09-05T02:33:32.106Z,90
2022-09-05T02:34:32.110Z,90
2022-09-05T02:35:31.715Z,90
2022-09-05T02:36:32.087Z,90
2022-09-05T02:38:33.092Z,90
2022-09-05T02:41:32.044Z,90
2022-09-05T02:42:22.577Z,90
2022-09-05T02:45:05.939Z,91
2022-09-05T02:45:13.703Z,91
2022-09-05T02:45:17.334Z,91
2022-09-05T02:45:19.266Z,91
2022-09-05T02:45:20.264Z,91
2022-09-05T02:45:32.512Z,91
2022-09-05T02:46:32.245Z,91
2022-09-05T02:47:31.724Z,92
2022-09-05T02:48:32.112Z,92
2022-09-05T02:51:01.175Z,92
2022-09-05T02:54:27.694Z,92
2022-09-05T02:57:24.514Z,92
2022-09-05T02:57:27.591Z,92
2022-09-05T02:57:35.917Z,92
2022-09-05T02:57:37.802Z,92
2022-09-05T02:57:38.988Z,92
2022-09-05T02:57:39.222Z,92
2022-09-05T02:58:05.527Z,92
2022-09-05T02:58:53.264Z,92
2022-09-05T02:59:36.326Z,92
2022-09-05T03:00:32.075Z,92
2022-09-05T03:01:32.343Z,92
2022-09-05T03:02:32.188Z,92
2022-09-05T03:03:31.735Z,92
2022-09-05T03:04:32.070Z,92
2022-09-05T03:05:32.123Z,92
2022-09-05T03:06:35.137Z,92
2022-09-05T03:07:31.708Z,92
2022-09-05T03:08:32.116Z,92
2022-09-05T03:09:32.085Z,92
2022-09-05T03:10:53.858Z,91
2022-09-05T03:11:31.890Z,91
2022-09-05T03:12:32.160Z,91
2022-09-05T03:13:32.133Z,91
2022-09-05T03:14:32.261Z,91
2022-09-05T03:15:31.836Z,91
2022-09-05T03:16:32.162Z,91
2022-09-05T03:17:32.245Z,91
2022-09-05T03:18:32.605Z,91
2022-09-05T03:19:31.862Z,91
2022-09-05T03:20:32.230Z,91
2022-09-05T03:21:32.261Z,91
2022-09-05T03:22:36.740Z,91
2022-09-05T03:23:33.258Z,91
2022-09-05T03:24:32.193Z,91
2022-09-05T03:25:32.125Z,91
2022-09-05T03:26:32.266Z,91
2022-09-05T03:27:31.817Z,91
2022-09-05T03:28:32.101Z,91
2022-09-05T03:29:32.105Z,91
2022-09-05T03:30:32.165Z,91
2022-09-05T03:31:31.806Z,91
2022-09-05T03:32:32.081Z,91
2022-09-05T03:33:32.090Z,91
2022-09-05T03:34:32.215Z,91
2022-09-05T03:35:31.814Z,91
2022-09-05T03:36:33.198Z,91
2022-09-05T03:37:32.112Z,91
2022-09-05T03:38:32.103Z,91
2022-09-05T03:39:31.713Z,91
2022-09-05T03:40:32.251Z,91
2022-09-05T03:41:39.960Z,91
2022-09-05T03:42:32.192Z,91
2022-09-05T03:43:31.755Z,91
2022-09-05T03:44:32.139Z,91
2022-09-05T03:45:36.994Z,91
2022-09-05T03:46:32.117Z,91
2022-09-05T03:47:31.698Z,91
2022-09-05T03:48:32.098Z,91
2022-09-05T03:53:18.007Z,91
2022-09-05T03:54:55.696Z,91
2022-09-05T03:56:25.206Z,91
2022-09-05T03:57:12.925Z,91
2022-09-05T03:57:16.679Z,91
2022-09-05T03:57:18.179Z,91
2022-09-05T03:57:18.759Z,91
2022-09-05T03:57:25.813Z,91
2022-09-05T03:57:38.734Z,91
2022-09-05T03:58:55.309Z,91
2022-09-05T03:59:31.708Z,91
2022-09-05T04:00:32.113Z,91
2022-09-05T04:03:27.001Z,91
2022-09-05T04:06:15.728Z,91
2022-09-05T04:08:16.804Z,91
2022-09-05T04:08:18.259Z,91
2022-09-05T04:08:18.263Z,91
2022-09-05T04:08:20.923Z,91
2022-09-05T04:08:29.106Z,91
2022-09-05T04:08:38.703Z,91
2022-09-05T04:09:50.135Z,91
2022-09-05T04:10:32.265Z,91
2022-09-05T04:11:31.644Z,91
2022-09-05T04:12:32.108Z,91
2022-09-05T04:13:32.100Z,91
2022-09-05T04:14:32.230Z,91
2022-09-05T04:15:31.637Z,91
2022-09-05T04:16:32.122Z,91
2022-09-05T04:17:32.094Z,91
2022-09-05T04:18:33.220Z,91
2022-09-05T04:19:31.650Z,91
2022-09-05T04:20:32.151Z,91
2022-09-05T04:21:32.090Z,91
2022-09-05T04:22:32.317Z,91
2022-09-05T04:23:31.651Z,91
2022-09-05T04:24:32.091Z,91
2022-09-05T04:25:32.071Z,91
2022-09-05T04:26:32.117Z,91
2022-09-05T04:27:31.670Z,91
2022-09-05T04:28:32.097Z,91
2022-09-05T04:29:32.154Z,91
2022-09-05T04:30:38.883Z,91
2022-09-05T04:31:31.761Z,91
2022-09-05T04:32:32.136Z,91
2022-09-05T04:33:36.565Z,91
2022-09-05T04:34:32.108Z,91
2022-09-05T04:35:31.635Z,91
2022-09-05T04:36:32.133Z,91
2022-09-05T04:37:37.167Z,91
2022-09-05T04:38:32.148Z,91
2022-09-05T04:39:31.643Z,91
2022-09-05T04:40:33.089Z,91
2022-09-05T04:41:37.692Z,91
2022-09-05T04:42:32.095Z,91
2022-09-05T04:43:31.603Z,91
2022-09-05T04:44:32.105Z,91
2022-09-05T04:45:32.183Z,91
2022-09-05T04:46:32.118Z,91
2022-09-05T04:47:31.628Z,91
2022-09-05T04:48:32.076Z,91
2022-09-05T04:49:32.084Z,90
2022-09-05T04:50:38.125Z,90
2022-09-05T04:51:31.929Z,90
2022-09-05T04:52:32.100Z,90
2022-09-05T04:53:32.082Z,89
2022-09-05T04:54:32.098Z,88
2022-09-05T04:55:31.613Z,87
2022-09-05T04:56:32.101Z,87
2022-09-05T04:57:32.103Z,87
2022-09-05T05:00:41.105Z,86
2022-09-05T05:02:47.978Z,85
2022-09-05T05:06:03.161Z,84
2022-09-05T05:06:04.827Z,83
2022-09-05T05:06:09.089Z,79
2022-09-05T05:06:10.849Z,80
2022-09-05T05:06:12.916Z,82
2022-09-05T05:06:18.703Z,80
2022-09-05T05:06:44.445Z,79
2022-09-05T05:07:31.721Z,80
2022-09-05T05:08:38.639Z,81
2022-09-05T05:09:32.119Z,81
2022-09-05T05:14:58.553Z,81
2022-09-05T05:17:56.419Z,81
2022-09-05T05:18:01.652Z,82
2022-09-05T05:18:04.037Z,81
2022-09-05T05:18:10.902Z,82
2022-09-05T05:18:13.757Z,82
2022-09-05T05:18:15.331Z,83
2022-09-05T05:18:16.111Z,82
2022-09-05T05:18:42.295Z,83
2022-09-05T05:19:31.723Z,83
2022-09-05T05:20:40.271Z,83
2022-09-05T05:21:32.146Z,83
2022-09-05T05:22:32.087Z,83
2022-09-05T05:23:31.573Z,83
2022-09-05T05:24:32.106Z,83
2022-09-05T05:25:32.048Z,83
2022-09-05T05:26:32.074Z,83
2022-09-05T05:27:31.574Z,83
2022-09-05T05:28:32.166Z,82
2022-09-05T05:29:32.071Z,82
2022-09-05T05:30:32.101Z,82
2022-09-05T05:31:31.681Z,82
2022-09-05T05:32:46.221Z,82
2022-09-05T05:33:32.078Z,81
2022-09-05T05:34:32.079Z,81
2022-09-05T05:35:31.552Z,81
2022-09-05T05:36:32.118Z,81
2022-09-05T05:37:32.075Z,81
2022-09-05T05:38:32.092Z,81
2022-09-05T05:39:31.629Z,81
2022-09-05T05:40:33.977Z,81
2022-09-05T05:41:32.142Z,81
2022-09-05T05:42:32.118Z,81
2022-09-05T05:43:31.556Z,81
2022-09-05T05:44:32.227Z,80
2022-09-05T05:45:32.081Z,80
2022-09-05T05:46:32.125Z,80
2022-09-05T05:47:32.675Z,80
2022-09-05T05:48:32.109Z,80
2022-09-05T05:49:32.087Z,80
2022-09-05T05:50:32.092Z,80
2022-09-05T05:51:34.718Z,79
2022-09-05T05:52:32.130Z,79
2022-09-05T05:53:43.165Z,79
2022-09-05T05:54:32.094Z,79
2022-09-05T05:55:53.155Z,79
2022-09-05T05:56:32.143Z,78
2022-09-05T05:57:32.074Z,77
2022-09-05T05:58:32.850Z,77
2022-09-05T05:59:31.554Z,77
2022-09-05T06:00:36.320Z,77
2022-09-05T06:01:38.361Z,77
2022-09-05T06:02:32.258Z,76
2022-09-05T06:03:31.909Z,76
2022-09-05T06:04:32.074Z,76
2022-09-05T06:05:32.094Z,76
2022-09-05T06:06:32.064Z,76
2022-09-05T06:07:40.775Z,76
2022-09-05T06:12:46.349Z,76
2022-09-05T06:14:47.855Z,76
2022-09-05T06:14:48.574Z,76
2022-09-05T06:14:49.419Z,75
2022-09-05T06:14:56.699Z,75
2022-09-05T06:14:58.261Z,75
2022-09-05T06:14:58.421Z,75
2022-09-05T06:15:32.051Z,75
2022-09-05T06:16:32.174Z,75
2022-09-05T06:17:32.146Z,75
2022-09-05T06:18:32.074Z,75
2022-09-05T06:20:09.637Z,75
2022-09-05T06:22:04.124Z,75
2022-09-05T06:22:07.296Z,75
2022-09-05T06:22:32.133Z,74
2022-09-05T06:23:38.608Z,74
2022-09-05T06:24:32.097Z,74
2022-09-05T06:25:32.089Z,74
2022-09-05T06:26:32.084Z,74
2022-09-05T06:27:31.495Z,74
2022-09-05T06:28:32.157Z,74
2022-09-05T06:29:38.116Z,73
2022-09-05T06:30:32.094Z,74
2022-09-05T06:31:31.853Z,73
2022-09-05T06:32:32.251Z,73
2022-09-05T06:33:32.135Z,73
2022-09-05T06:34:35.540Z,73
2022-09-05T06:35:31.483Z,73
2022-09-05T06:36:32.220Z,73
2022-09-05T06:37:32.084Z,73
2022-09-05T06:38:32.089Z,73
2022-09-05T06:39:31.514Z,73
2022-09-05T06:40:32.380Z,73
2022-09-05T06:41:32.088Z,72
2022-09-05T06:42:43.579Z,72
2022-09-05T06:43:31.502Z,72
2022-09-05T06:44:32.104Z,72
2022-09-05T06:45:32.091Z,72
2022-09-05T06:46:54.723Z,72
2022-09-05T06:47:34.123Z,72
2022-09-05T06:48:46.083Z,72
2022-09-05T06:49:37.411Z,72
2022-09-05T06:51:02.055Z,71
2022-09-05T06:51:31.517Z,71
2022-09-05T06:52:32.055Z,71
2022-09-05T06:53:32.333Z,71
2022-09-05T06:54:32.538Z,71
2022-09-05T06:55:31.421Z,71
2022-09-05T06:56:32.088Z,71
2022-09-05T06:57:32.100Z,71
2022-09-05T06:58:32.094Z,70
2022-09-05T06:59:31.477Z,70
2022-09-05T07:00:32.142Z,70
2022-09-05T07:01:53.851Z,70
2022-09-05T07:02:58.246Z,70
2022-09-05T07:03:32.487Z,70
2022-09-05T07:05:24.120Z,70
2022-09-05T07:05:39.937Z,70
2022-09-05T07:07:01.038Z,70
2022-09-05T07:07:31.524Z,70
2022-09-05T07:08:35.609Z,70
2022-09-05T07:09:32.061Z,70
2022-09-05T07:10:38.787Z,70
2022-09-05T07:11:31.410Z,69
2022-09-05T07:12:32.099Z,69
2022-09-05T07:13:32.066Z,69
2022-09-05T07:14:32.104Z,69
2022-09-05T07:15:31.447Z,69
2022-09-05T07:16:38.071Z,69
2022-09-05T07:17:32.085Z,69
2022-09-05T07:18:32.102Z,68
2022-09-05T07:19:31.426Z,68
2022-09-05T07:20:32.107Z,68
2022-09-05T07:21:32.192Z,68
2022-09-05T07:22:48.872Z,67
2022-09-05T07:24:06.635Z,67
2022-09-05T07:24:54.024Z,67
2022-09-05T07:25:37.257Z,67
2022-09-05T07:26:51.879Z,66
2022-09-05T07:27:31.481Z,66
2022-09-05T07:28:32.084Z,65
2022-09-05T07:29:32.064Z,64
2022-09-05T07:30:32.097Z,64
2022-09-05T07:31:37.890Z,63
2022-09-05T07:32:32.061Z,62
2022-09-05T07:33:32.080Z,61
2022-09-05T07:34:32.101Z,61
2022-09-05T07:35:41.704Z,61
2022-09-05T07:36:32.078Z,61
2022-09-05T07:37:32.064Z,61
2022-09-05T07:38:41.850Z,59
2022-09-05T07:39:31.555Z,59
2022-09-05T07:40:32.234Z,59
2022-09-05T07:41:32.077Z,59
2022-09-05T07:42:32.078Z,58
2022-09-05T07:43:31.453Z,58
2022-09-05T07:44:32.105Z,57
2022-09-05T07:45:32.266Z,57
2022-09-05T07:46:32.106Z,57
2022-09-05T07:47:31.409Z,58
2022-09-05T07:48:35.301Z,57
2022-09-05T07:49:32.079Z,57
2022-09-05T07:53:53.486Z,57
2022-09-05T07:56:46.499Z,58
2022-09-05T07:56:47.441Z,57
2022-09-05T07:56:51.731Z,57
2022-09-05T07:57:00.082Z,56
2022-09-05T07:57:00.803Z,56
2022-09-05T07:57:04.126Z,56
2022-09-05T07:57:42.877Z,55
2022-09-05T07:58:32.140Z,57
2022-09-05T07:59:32.046Z,58
2022-09-05T08:00:33.491Z,57
2022-09-05T08:01:32.935Z,57
2022-09-05T08:02:32.080Z,57
2022-09-05T08:03:31.385Z,57
2022-09-05T08:04:32.127Z,56
2022-09-05T08:05:35.058Z,57
2022-09-05T08:07:45.567Z,57
2022-09-05T08:07:49.591Z,57
2022-09-05T08:08:32.159Z,55
2022-09-05T08:10:08.867Z,55
2022-09-05T08:11:21.945Z,55
2022-09-05T08:11:32.110Z,54
2022-09-05T08:12:32.079Z,54
2022-09-05T08:13:32.150Z,53
2022-09-05T08:14:44.693Z,54
2022-09-05T08:16:09.652Z,54
2022-09-05T08:16:32.217Z,53
2022-09-05T08:17:32.077Z,54
2022-09-05T08:18:32.101Z,54
2022-09-05T08:19:32.162Z,54
2022-09-05T08:20:32.095Z,55
2022-09-05T08:21:34.696Z,57
2022-09-05T08:22:32.079Z,57
2022-09-05T08:23:32.067Z,58
2022-09-05T08:24:32.071Z,57
2022-09-05T08:25:37.636Z,56
2022-09-05T08:26:32.153Z,56
2022-09-05T08:27:32.071Z,55
2022-09-05T08:28:37.611Z,55
2022-09-05T08:29:32.073Z,55
2022-09-05T08:30:32.070Z,55
2022-09-05T08:31:32.261Z,55
2022-09-05T08:32:35.274Z,55
2022-09-05T08:33:32.233Z,56
2022-09-05T08:34:44.592Z,55
2022-09-05T08:35:32.065Z,56
2022-09-05T08:36:32.060Z,56
2022-09-05T08:37:32.066Z,56
2022-09-05T08:38:38.725Z,55
2022-09-05T08:39:32.187Z,55
2022-09-05T08:40:32.078Z,55
2022-09-05T08:41:51.309Z,54
2022-09-05T08:42:32.320Z,53
2022-09-05T08:46:35.794Z,54
2022-09-05T08:46:42.506Z,55
2022-09-05T08:46:45.033Z,55
2022-09-05T08:46:45.101Z,54
2022-09-05T08:47:45.114Z,55
2022-09-05T08:48:32.085Z,56
2022-09-05T08:49:36.397Z,55
2022-09-05T08:50:32.082Z,55
2022-09-05T08:51:32.231Z,54
2022-09-05T08:52:32.082Z,55
2022-09-05T08:53:46.695Z,54
2022-09-05T08:54:32.106Z,53
2022-09-05T08:55:32.203Z,52
2022-09-05T08:56:32.046Z,52
2022-09-05T08:57:32.065Z,53
2022-09-05T08:58:32.357Z,52
2022-09-05T08:59:33.293Z,52
2022-09-05T09:00:32.238Z,53
2022-09-05T09:01:36.777Z,54
2022-09-05T09:02:48.054Z,54
2022-09-05T09:03:32.187Z,54
2022-09-05T09:05:02.309Z,55
2022-09-05T09:06:03.737Z,55
2022-09-05T09:06:32.107Z,55
2022-09-05T09:07:51.102Z,55
2022-09-05T09:08:32.154Z,55
2022-09-05T09:09:32.234Z,56
2022-09-05T09:10:32.084Z,53
2022-09-05T09:11:32.075Z,53
2022-09-05T09:12:32.093Z,51
2022-09-05T09:13:32.079Z,51
2022-09-05T09:14:32.068Z,52
2022-09-05T09:15:32.257Z,51
2022-09-05T09:16:32.161Z,50
2022-09-05T09:17:32.077Z,51
2022-09-05T09:18:35.912Z,52
2022-09-05T09:19:32.061Z,51
2022-09-05T09:20:32.074Z,51
2022-09-05T09:21:32.089Z,51
2022-09-05T09:22:32.044Z,50
2022-09-05T09:23:32.910Z,51
2022-09-05T09:24:32.093Z,52
2022-09-05T09:25:34.056Z,52
2022-09-05T09:26:32.061Z,52
2022-09-05T09:28:11.291Z,52
2022-09-05T09:28:49.745Z,51
2022-09-05T09:29:32.141Z,51
2022-09-05T09:30:32.037Z,52
2022-09-05T09:31:32.216Z,52
2022-09-05T09:32:32.247Z,53
2022-09-05T09:33:32.170Z,54
2022-09-05T09:34:32.046Z,54
2022-09-05T09:35:32.079Z,53
2022-09-05T09:36:32.081Z,53
2022-09-05T09:37:49.962Z,54
2022-09-05T09:38:32.123Z,54
2022-09-05T09:39:37.585Z,53
2022-09-05T09:40:32.109Z,53
2022-09-05T09:41:32.055Z,53
2022-09-05T09:42:33.712Z,52
2022-09-05T09:43:32.305Z,52
2022-09-05T09:44:32.090Z,52
2022-09-05T09:45:32.069Z,51
2022-09-05T09:46:32.190Z,52
2022-09-05T09:47:32.060Z,52
2022-09-05T09:48:32.054Z,51
2022-09-05T09:49:32.069Z,51
2022-09-05T09:50:32.050Z,52
2022-09-05T09:51:32.066Z,52
2022-09-05T09:52:32.137Z,52
2022-09-05T09:53:36.850Z,52
2022-09-05T09:54:32.063Z,51
2022-09-05T09:55:32.056Z,51
2022-09-05T09:56:32.074Z,52
2022-09-05T09:57:32.062Z,52
2022-09-05T09:58:32.026Z,52
2022-09-05T09:59:32.071Z,51
2022-09-05T10:00:32.060Z,51
2022-09-05T10:01:35.962Z,51
2022-09-05T10:03:27.005Z,53
2022-09-05T10:05:52.371Z,53
2022-09-05T10:10:34.718Z,53
2022-09-05T10:10:45.323Z,52
2022-09-05T10:10:45.622Z,52
2022-09-05T10:10:46.658Z,52
2022-09-05T10:10:49.409Z,53
2022-09-05T10:10:51.339Z,52
2022-09-05T10:11:18.728Z,52
2022-09-05T10:11:53.166Z,54
2022-09-05T10:12:32.199Z,53
2022-09-05T10:13:32.125Z,54
2022-09-05T10:14:49.804Z,55
2022-09-05T10:15:32.714Z,55
2022-09-05T10:16:32.195Z,56
2022-09-05T10:17:32.067Z,54
2022-09-05T10:18:32.084Z,55
2022-09-05T10:20:32.129Z,53
2022-09-05T10:21:32.098Z,54
2022-09-05T10:22:37.038Z,52
2022-09-05T10:23:32.049Z,52
2022-09-05T10:24:32.051Z,52
2022-09-05T10:25:32.056Z,52
2022-09-05T10:26:32.071Z,52
2022-09-05T10:27:32.609Z,51
2022-09-05T10:28:32.057Z,51
2022-09-05T10:29:37.863Z,50
2022-09-05T10:32:19.333Z,49
2022-09-05T10:34:23.402Z,48
2022-09-05T10:35:08.675Z,49
2022-09-05T10:35:14.708Z,49
2022-09-05T10:35:17.697Z,50
2022-09-05T10:35:32.556Z,51
2022-09-05T10:36:32.156Z,51
2022-09-05T10:37:32.061Z,51
2022-09-05T10:38:32.084Z,51
2022-09-05T10:39:32.138Z,51
2022-09-05T10:40:36.309Z,52
2022-09-05T10:41:32.113Z,52
2022-09-05T10:42:32.074Z,51
2022-09-05T10:43:32.054Z,51
2022-09-05T10:44:32.031Z,52
2022-09-05T10:45:38.258Z,51
2022-09-05T10:46:50.677Z,52
2022-09-05T10:47:32.186Z,52
2022-09-05T10:48:32.053Z,52
2022-09-05T10:49:32.086Z,52
2022-09-05T10:50:32.101Z,53
2022-09-05T10:51:32.048Z,52
2022-09-05T10:52:32.069Z,53
2022-09-05T10:53:38.996Z,53
2022-09-05T10:54:32.057Z,53
2022-09-05T10:55:32.072Z,54
2022-09-05T10:56:32.020Z,53
2022-09-05T10:57:32.061Z,53
2022-09-05T11:01:16.403Z,53
2022-09-05T11:02:20.159Z,54
2022-09-05T11:02:20.276Z,53
2022-09-05T11:02:24.033Z,52
2022-09-05T11:02:36.820Z,54
2022-09-05T11:03:32.081Z,54
2022-09-05T11:04:32.084Z,54
2022-09-05T11:05:32.107Z,53
2022-09-05T11:06:32.050Z,51
2022-09-05T11:07:32.045Z,51
2022-09-05T11:08:32.077Z,52
2022-09-05T11:09:32.050Z,50
2022-09-05T11:10:32.063Z,50
2022-09-05T11:11:34.808Z,50
2022-09-05T11:12:32.049Z,50
2022-09-05T11:13:32.070Z,49
2022-09-05T11:14:32.074Z,48
2022-09-05T11:15:32.098Z,46
2022-09-05T11:16:32.226Z,45
2022-09-05T11:17:32.042Z,44
2022-09-05T11:18:55.188Z,45
2022-09-05T11:19:32.075Z,44
2022-09-05T11:20:35.435Z,44
2022-09-05T11:21:32.060Z,44
2022-09-05T11:22:32.047Z,43
2022-09-05T11:23:32.155Z,44
2022-09-05T11:24:32.063Z,43
2022-09-05T11:25:38.260Z,43
2022-09-05T11:26:32.078Z,44
2022-09-05T11:27:32.032Z,43
2022-09-05T11:28:32.068Z,45
2022-09-05T11:29:32.082Z,44
2022-09-05T11:30:35.564Z,44
2022-09-05T11:32:25.385Z,43
2022-09-05T11:39:10.745Z,44
2022-09-05T11:39:49.112Z,45
2022-09-05T11:39:52.981Z,45
2022-09-05T11:39:54.427Z,45
2022-09-05T11:40:00.370Z,45
2022-09-05T11:40:06.457Z,44
2022-09-05T11:40:07.752Z,44
2022-09-05T11:40:08.725Z,44
2022-09-05T11:40:49.270Z,43
2022-09-05T11:41:32.149Z,43
2022-09-05T11:42:32.047Z,43
2022-09-05T11:43:32.181Z,43
2022-09-05T11:44:32.064Z,44
2022-09-05T11:45:32.077Z,44
2022-09-05T11:46:32.153Z,44
2022-09-05T11:47:39.339Z,45
2022-09-05T11:48:32.043Z,45
2022-09-05T11:49:32.161Z,45
2022-09-05T11:50:32.093Z,46
2022-09-05T11:51:34.131Z,46
2022-09-05T11:52:32.048Z,46
2022-09-05T11:53:32.263Z,46
2022-09-05T11:54:32.083Z,46
2022-09-05T11:55:32.039Z,46
2022-09-05T11:56:32.223Z,46
2022-09-05T11:57:34.229Z,46
2022-09-05T11:58:44.531Z,46
2022-09-05T11:59:33.580Z,46
2022-09-05T12:00:34.244Z,46
2022-09-05T12:01:41.727Z,46
2022-09-05T12:02:32.119Z,45
2022-09-05T12:03:57.170Z,46
2022-09-05T12:04:32.138Z,46
2022-09-05T12:05:51.166Z,46
2022-09-05T12:06:32.422Z,47
2022-09-05T12:07:32.353Z,47
2022-09-05T12:08:32.068Z,47
2022-09-05T12:09:32.059Z,44
2022-09-05T12:10:39.853Z,44
2022-09-05T12:11:32.093Z,45
2022-09-05T12:12:41.158Z,44
2022-09-05T12:13:32.022Z,44
2022-09-05T12:14:32.065Z,43
2022-09-05T12:15:32.053Z,43
2022-09-05T12:16:32.106Z,43
2022-09-05T12:17:35.525Z,43
2022-09-05T12:18:32.050Z,42
2022-09-05T12:19:32.875Z,42
2022-09-05T12:20:34.843Z,42
2022-09-05T12:21:32.047Z,42
2022-09-05T12:22:32.066Z,43
2022-09-05T12:23:53.629Z,43
2022-09-05T12:25:25.160Z,43
2022-09-05T12:27:41.008Z,43
2022-09-05T12:27:44.956Z,45
2022-09-05T12:29:26.563Z,44
2022-09-05T12:29:37.427Z,44
2022-09-05T12:30:57.119Z,44
2022-09-05T12:32:36.477Z,45
2022-09-05T12:35:54.498Z,45
2022-09-05T12:36:01.690Z,45
2022-09-05T12:36:08.279Z,45
2022-09-05T12:36:12.351Z,46
2022-09-05T12:39:01.382Z,45
2022-09-05T12:40:00.930Z,44
2022-09-05T12:40:46.190Z,45
2022-09-05T12:41:34.144Z,45
2022-09-05T12:41:38.801Z,45
2022-09-05T12:41:41.715Z,44
2022-09-05T12:41:44.903Z,44
2022-09-05T12:42:39.528Z,43
2022-09-05T12:44:36.533Z,44
2022-09-05T12:44:41.794Z,44
2022-09-05T12:45:37.266Z,44
2022-09-05T12:46:32.048Z,44
2022-09-05T12:47:32.144Z,44
2022-09-05T12:48:39.287Z,44
2022-09-05T12:49:36.140Z,44
2022-09-05T12:50:32.051Z,43
2022-09-05T12:51:46.246Z,43
2022-09-05T12:52:32.043Z,43
2022-09-05T12:53:32.187Z,43
2022-09-05T12:54:33.977Z,42
2022-09-05T12:55:32.047Z,42
2022-09-05T13:00:39.736Z,42
2022-09-05T13:02:58.281Z,42
2022-09-05T13:02:59.165Z,42
2022-09-05T13:03:02.855Z,42
2022-09-05T13:03:04.086Z,40
2022-09-05T13:03:06.458Z,41
2022-09-05T13:03:07.313Z,41
2022-09-05T13:03:32.704Z,41
2022-09-05T13:04:33.074Z,40
2022-09-05T13:05:32.194Z,40
2022-09-05T13:06:32.192Z,40
2022-09-05T13:07:32.017Z,40
2022-09-05T13:08:32.045Z,40
2022-09-05T13:10:41.000Z,41
2022-09-05T13:12:16.343Z,41
2022-09-05T13:14:49.894Z,42
2022-09-05T13:14:53.291Z,43
2022-09-05T13:14:53.866Z,42
2022-09-05T13:14:57.074Z,43
2022-09-05T13:15:32.596Z,43
2022-09-05T13:16:32.127Z,42
2022-09-05T13:17:32.051Z,42
2022-09-05T13:18:32.041Z,42
2022-09-05T13:19:32.074Z,42
2022-09-05T13:20:32.055Z,42
2022-09-05T13:21:32.072Z,41
2022-09-05T13:22:32.036Z,41
2022-09-05T13:23:32.097Z,42
2022-09-05T13:24:32.077Z,42
2022-09-05T13:25:32.164Z,42
2022-09-05T13:26:32.035Z,42
2022-09-05T13:27:32.025Z,42
2022-09-05T13:28:32.058Z,42
2022-09-05T13:29:32.260Z,42
2022-09-05T13:34:23.305Z,42
2022-09-05T13:38:00.765Z,41
2022-09-05T13:38:01.012Z,40
2022-09-05T13:38:02.317Z,41
2022-09-05T13:38:05.344Z,41
2022-09-05T13:38:05.633Z,40
2022-09-05T13:38:10.405Z,40
2022-09-05T13:38:17.353Z,41
2022-09-05T13:38:47.373Z,40
2022-09-05T13:39:32.164Z,41
2022-09-05T13:40:32.171Z,41
2022-09-05T13:41:32.049Z,41
2022-09-05T13:42:32.060Z,42
2022-09-05T13:43:32.027Z,42
2022-09-05T13:44:32.106Z,42
2022-09-05T13:45:32.050Z,43
2022-09-05T13:46:32.097Z,43
2022-09-05T13:47:32.028Z,42
2022-09-05T13:49:23.557Z,42
2022-09-05T13:49:32.608Z,43
2022-09-05T13:50:32.054Z,43
2022-09-05T13:51:32.039Z,43
2022-09-05T13:52:32.045Z,43
2022-09-05T13:53:36.663Z,43
2022-09-05T13:54:32.045Z,43
2022-09-05T13:55:32.033Z,43
2022-09-05T13:56:32.069Z,42
2022-09-05T13:57:33.043Z,43
2022-09-05T13:58:32.047Z,43
2022-09-05T13:59:32.036Z,43
2022-09-05T14:00:32.042Z,43
2022-09-05T14:01:32.074Z,43
2022-09-05T14:02:32.122Z,43
2022-09-05T14:03:37.630Z,43
2022-09-05T14:05:32.169Z,43
2022-09-05T14:06:47.735Z,43
2022-09-05T14:07:46.514Z,42
2022-09-05T14:08:32.060Z,42
2022-09-05T14:09:37.273Z,43
2022-09-05T14:10:32.104Z,42
2022-09-05T14:11:32.041Z,42
2022-09-05T14:12:32.038Z,42
2022-09-05T14:13:32.479Z,42
2022-09-05T14:15:32.876Z,43
2022-09-05T14:16:32.072Z,43
2022-09-05T14:17:52.473Z,44
2022-09-05T14:18:34.028Z,44